Pineville, Minnesota
Current Conditions -  °F | °C
As of 11:51 AM on Thursday 23 Oct 2014 (Local Time) from KEVM Reporting Station
Overcast Overcast  
Wind Chill: 50°   Ceiling: 500
Heat Index: 50°   Visibility: 7mi
Dew Point: 46°   Wind: 6mph
Humidity: 87%   Direction: 200°SSW
Pressure: 29.96"   Gusts: NA
Location:  47.4622°N, 92.1946°W
Report Text: KEVM 231651Z AUTO 20005KT 7SM OVC005 10/08 A2996 RMK AO2
Loading
Personal Weather Stations






























Interactive Weather Map
Tropical Storm Tracking
New forecast layout! Learn more

10-Day Weather Forecast

Advertisements
Track Severe Weather on mobile